Time;durP1;ratioP1;P1;durP2;ratioP2;P2;SDS_P1;SDS_P2;PMS_P1;PMS_P2;Temp;Humidity;BMP_temperature;BMP_pressure;BME280_temperature;BME280_humidity;BME280_pressure;Samples;Min_cycle;Max_cycle;Signal;HPM_P1;HPM_P2
2022/12/23 00:00:19;;;;;;;1.88;1.50;;;;;;;;;;5024786;28;20067;-80
2022/12/23 00:02:45;;;;;;;2.13;1.60;;;;;;;;;;5027517;28;20430;-80
2022/12/23 00:05:11;;;;;;;2.25;1.40;;;;;;;;;;5023871;28;20029;-80
2022/12/23 00:07:37;;;;;;;2.03;1.60;;;;;;;;;;5025698;28;20025;-81
2022/12/23 00:10:03;;;;;;;2.28;1.75;;;;;;;;;;5024716;28;20395;-80
2022/12/23 00:15:14;;;;;;;2.38;1.63;;;;;;;;;;5024660;28;20044;-79
2022/12/23 00:17:41;;;;;;;2.08;1.38;;;;;;;;;;5027244;28;20161;-79
2022/12/23 00:20:08;;;;;;;2.33;1.42;;;;;;;;;;5016583;28;20030;-80
2022/12/23 00:25:18;;;;;;;2.72;1.50;;;;;;;;;;5021278;28;20037;-79
2022/12/23 00:28:00;;;;;;;4.05;1.75;;;;;;;;;;5024838;28;20041;-79
2022/12/23 00:30:26;;;;;;;1.98;1.38;;;;;;;;;;5023975;28;20041;-79
2022/12/23 00:32:52;;;;;;;2.78;1.70;;;;;;;;;;5023794;28;20064;-79
2022/12/23 00:35:18;;;;;;;1.85;1.40;;;;;;;;;;5023221;28;20435;-79
2022/12/23 00:37:44;;;;;;;1.85;1.40;;;;;;;;;;5021530;28;20750;-80
2022/12/23 00:42:59;;;;;;;2.53;1.77;;;;;;;;;;5013293;28;20037;-78
2022/12/23 00:45:25;;;;;;;1.77;1.50;;;;;;;;;;5026190;28;20030;-79
2022/12/23 00:50:36;;;;;;;1.80;1.40;;;;;;;;;;5024689;28;20049;-78
2022/12/23 00:53:02;;;;;;;3.92;1.80;;;;;;;;;;5028669;28;20075;-79
2022/12/23 00:55:28;;;;;;;1.90;1.52;;;;;;;;;;5027750;28;20112;-78
2022/12/23 00:57:54;;;;;;;2.80;1.55;;;;;;;;;;5026442;28;20022;-79
2022/12/23 01:05:35;;;;;;;3.67;1.50;;;;;;;;;;5026357;28;20542;-79
2022/12/23 01:05:51;;;;;;;2.17;1.40;;;;;;;;;;5018201;28;20511;-78
2022/12/23 01:08:17;;;;;;;3.03;1.77;;;;;;;;;;5029453;28;20017;-79
2022/12/23 01:10:43;;;;;;;2.00;1.30;;;;;;;;;;5032906;28;20472;-79
2022/12/23 01:13:09;;;;;;;3.97;1.65;;;;;;;;;;5029242;28;20052;-79
2022/12/23 01:15:34;;;;;;;1.63;1.27;;;;;;;;;;5029408;28;20049;-78
2022/12/23 01:18:00;;;;;;;2.08;1.23;;;;;;;;;;5028347;28;20084;-79
2022/12/23 01:20:26;;;;;;;2.22;1.50;;;;;;;;;;5029652;28;20032;-80
2022/12/23 01:22:52;;;;;;;2.13;1.40;;;;;;;;;;5027235;28;20021;-79
2022/12/23 01:25:18;;;;;;;2.13;1.55;;;;;;;;;;5030631;28;20294;-79
2022/12/23 01:27:44;;;;;;;1.23;1.10;;;;;;;;;;5025643;28;20392;-79
2022/12/23 01:30:10;;;;;;;1.98;1.45;;;;;;;;;;5027163;28;20025;-79
2022/12/23 01:32:36;;;;;;;1.73;1.25;;;;;;;;;;5026250;28;20037;-79
2022/12/23 01:35:02;;;;;;;1.63;1.17;;;;;;;;;;5029397;28;20025;-79
2022/12/23 01:37:28;;;;;;;3.05;1.52;;;;;;;;;;5028436;28;20057;-79
2022/12/23 01:39:54;;;;;;;2.03;1.42;;;;;;;;;;5027921;28;20041;-79
2022/12/23 01:45:11;;;;;;;3.10;1.10;;;;;;;;;;5031093;28;20109;-79
2022/12/23 01:47:39;;;;;;;1.77;1.25;;;;;;;;;;5023087;28;20483;-79
2022/12/23 01:50:24;;;;;;;2.00;1.40;;;;;;;;;;5028797;28;20029;-78
2022/12/23 01:52:56;;;;;;;2.28;1.35;;;;;;;;;;5023478;28;20622;-79
2022/12/23 01:55:23;;;;;;;1.52;1.20;;;;;;;;;;5026826;28;20045;-79
2022/12/23 01:57:49;;;;;;;1.58;1.20;;;;;;;;;;5025539;28;20040;-80
2022/12/23 02:05:45;;;;;;;1.85;1.15;;;;;;;;;;5028059;28;20088;-80
2022/12/23 02:11:00;;;;;;;1.38;1.13;;;;;;;;;;5028327;28;20499;-80
2022/12/23 02:16:15;;;;;;;2.10;1.60;;;;;;;;;;5026164;28;20034;-79
2022/12/23 02:16:37;;;;;;;2.90;1.33;;;;;;;;;;5026628;28;20034;-80
2022/12/23 02:19:09;;;;;;;1.92;1.50;;;;;;;;;;5028092;28;20025;-79
2022/12/23 02:21:41;;;;;;;1.52;1.27;;;;;;;;;;5026623;28;20021;-79
2022/12/23 02:24:35;;;;;;;2.05;1.50;;;;;;;;;;5025062;28;20025;-79
2022/12/23 02:27:07;;;;;;;2.83;1.25;;;;;;;;;;5019362;28;20030;-80
2022/12/23 02:29:33;;;;;;;2.65;1.40;;;;;;;;;;5025770;28;20044;-79
2022/12/23 02:32:06;;;;;;;1.65;1.23;;;;;;;;;;5026969;28;20049;-80
2022/12/23 02:34:35;;;;;;;1.42;1.25;;;;;;;;;;5023873;28;20030;-79
2022/12/23 02:37:06;;;;;;;2.30;1.33;;;;;;;;;;5023549;28;20033;-79
2022/12/23 02:39:41;;;;;;;1.00;0.90;;;;;;;;;;5023814;28;20028;-79
2022/12/23 02:42:15;;;;;;;1.67;1.27;;;;;;;;;;5027728;28;20033;-78
2022/12/23 02:44:45;;;;;;;1.30;1.20;;;;;;;;;;5026514;28;20035;-79
2022/12/23 02:47:14;;;;;;;1.35;1.20;;;;;;;;;;5022638;28;20022;-79
2022/12/23 02:49:42;;;;;;;1.35;1.25;;;;;;;;;;5025499;28;20021;-78
2022/12/23 02:52:21;;;;;;;2.95;1.58;;;;;;;;;;5034860;28;20030;-79
2022/12/23 02:54:50;;;;;;;3.13;1.15;;;;;;;;;;5018569;28;20540;-79
2022/12/23 02:57:18;;;;;;;2.17;1.63;;;;;;;;;;5023245;28;20059;-79
2022/12/23 02:59:46;;;;;;;2.08;1.42;;;;;;;;;;5031014;28;20037;-79
2022/12/23 03:02:12;;;;;;;1.20;1.10;;;;;;;;;;5023150;28;20030;-79
2022/12/23 03:04:41;;;;;;;2.92;1.63;;;;;;;;;;5024838;28;20385;-79
2022/12/23 03:07:10;;;;;;;1.90;1.40;;;;;;;;;;5026577;28;20024;-79
2022/12/23 03:09:44;;;;;;;2.97;1.65;;;;;;;;;;5027877;28;20064;-79
2022/12/23 03:12:28;;;;;;;2.17;1.33;;;;;;;;;;5025364;28;20036;-80
2022/12/23 03:15:17;;;;;;;1.50;1.38;;;;;;;;;;5024338;28;20037;-79
2022/12/23 03:17:50;;;;;;;1.38;1.25;;;;;;;;;;5020941;28;20496;-79
2022/12/23 03:20:26;;;;;;;2.17;1.58;;;;;;;;;;5026531;28;20087;-79
2022/12/23 03:22:52;;;;;;;1.60;1.30;;;;;;;;;;5028016;28;20032;-79
2022/12/23 03:25:18;;;;;;;2.03;1.45;;;;;;;;;;5030733;28;20285;-79
2022/12/23 03:28:03;;;;;;;1.67;1.30;;;;;;;;;;5021802;28;20494;-80
2022/12/23 03:30:30;;;;;;;1.77;1.35;;;;;;;;;;5023708;28;20122;-80
2022/12/23 03:33:16;;;;;;;3.42;1.40;;;;;;;;;;5028377;28;20048;-80
2022/12/23 03:35:45;;;;;;;2.10;1.45;;;;;;;;;;5026154;28;20086;-80
2022/12/23 03:38:13;;;;;;;3.72;1.33;;;;;;;;;;5023709;28;20044;-80
2022/12/23 03:40:45;;;;;;;1.63;1.33;;;;;;;;;;5024498;28;20017;-80
2022/12/23 03:43:15;;;;;;;2.67;1.63;;;;;;;;;;5029109;28;20033;-80
2022/12/23 03:45:44;;;;;;;2.35;1.40;;;;;;;;;;5025256;28;20929;-80
2022/12/23 03:48:24;;;;;;;3.22;1.77;;;;;;;;;;5022924;28;20036;-77
2022/12/23 03:50:53;;;;;;;2.38;1.60;;;;;;;;;;5024501;28;20106;-80
2022/12/23 03:53:25;;;;;;;1.98;1.30;;;;;;;;;;5022688;28;20021;-80
2022/12/23 03:55:56;;;;;;;2.13;1.42;;;;;;;;;;5021435;28;20045;-80
2022/12/23 03:58:40;;;;;;;1.95;1.42;;;;;;;;;;5017430;28;20033;-80
2022/12/23 04:01:15;;;;;;;1.50;1.10;;;;;;;;;;5025482;28;20484;-79
2022/12/23 04:04:00;;;;;;;2.13;1.63;;;;;;;;;;5024050;28;20117;-80
2022/12/23 04:06:28;;;;;;;2.40;1.52;;;;;;;;;;5021566;28;20075;-80
2022/12/23 04:08:53;;;;;;;2.35;1.60;;;;;;;;;;5022124;28;20034;-80
2022/12/23 04:11:20;;;;;;;2.67;1.45;;;;;;;;;;5025148;28;20040;-80
2022/12/23 04:13:47;;;;;;;1.73;1.35;;;;;;;;;;5026190;28;20029;-80
2022/12/23 04:16:13;;;;;;;2.45;1.65;;;;;;;;;;5027199;28;20029;-79
2022/12/23 04:18:39;;;;;;;2.15;1.50;;;;;;;;;;5021462;28;20025;-80
2022/12/23 04:21:05;;;;;;;1.70;1.27;;;;;;;;;;5024234;28;20034;-80
2022/12/23 04:23:31;;;;;;;1.73;1.23;;;;;;;;;;5023274;28;20033;-80
2022/12/23 04:25:57;;;;;;;1.45;1.02;;;;;;;;;;5025677;28;20087;-79
2022/12/23 04:28:23;;;;;;;1.67;1.33;;;;;;;;;;5024804;28;20037;-80
2022/12/23 04:30:49;;;;;;;1.50;1.40;;;;;;;;;;5022737;28;20032;-79
2022/12/23 04:33:15;;;;;;;2.20;1.48;;;;;;;;;;5025239;28;20479;-79
2022/12/23 04:35:41;;;;;;;2.55;1.55;;;;;;;;;;5025692;28;20041;-79
2022/12/23 04:38:07;;;;;;;1.55;1.20;;;;;;;;;;5023599;28;21018;-79
2022/12/23 04:40:33;;;;;;;3.70;1.50;;;;;;;;;;5024473;28;20397;-79
2022/12/23 04:42:59;;;;;;;2.00;1.33;;;;;;;;;;5026297;28;20036;-79
2022/12/23 04:45:25;;;;;;;1.33;1.10;;;;;;;;;;5028803;28;20067;-79
2022/12/23 04:47:51;;;;;;;1.25;1.10;;;;;;;;;;5058966;28;20061;-79
2022/12/23 04:50:17;;;;;;;1.40;1.30;;;;;;;;;;5027774;28;20037;-79
2022/12/23 04:52:43;;;;;;;2.30;1.30;;;;;;;;;;5029455;28;20120;-80
2022/12/23 04:55:10;;;;;;;1.85;1.65;;;;;;;;;;5027340;28;20049;-80
2022/12/23 04:57:36;;;;;;;1.70;1.40;;;;;;;;;;5028675;28;20030;-80
2022/12/23 05:00:02;;;;;;;1.95;1.30;;;;;;;;;;5027604;28;20076;-80
2022/12/23 05:02:28;;;;;;;1.75;1.30;;;;;;;;;;5029119;28;20366;-79
2022/12/23 05:04:54;;;;;;;2.35;1.33;;;;;;;;;;5029405;28;20025;-80
2022/12/23 05:07:20;;;;;;;2.80;1.20;;;;;;;;;;5029103;28;20029;-80
2022/12/23 05:09:46;;;;;;;1.88;1.40;;;;;;;;;;5028792;28;20481;-79
2022/12/23 05:12:12;;;;;;;1.65;1.30;;;;;;;;;;5030273;28;20485;-79
2022/12/23 05:14:38;;;;;;;1.95;1.40;;;;;;;;;;5027354;28;20029;-79
2022/12/23 05:17:04;;;;;;;3.83;1.38;;;;;;;;;;5029537;28;20511;-79
2022/12/23 05:19:30;;;;;;;2.92;1.00;;;;;;;;;;5028472;28;21750;-79
2022/12/23 05:21:56;;;;;;;1.27;1.13;;;;;;;;;;5028138;28;20480;-79
2022/12/23 05:24:22;;;;;;;1.83;1.42;;;;;;;;;;5026928;28;20034;-80
2022/12/23 05:26:48;;;;;;;1.70;1.17;;;;;;;;;;5028341;28;20033;-79
2022/12/23 05:29:14;;;;;;;1.92;1.27;;;;;;;;;;5026660;28;20026;-79
2022/12/23 05:31:40;;;;;;;2.08;1.40;;;;;;;;;;5027914;28;20053;-79
2022/12/23 05:34:06;;;;;;;1.52;1.13;;;;;;;;;;5028415;28;20036;-79
2022/12/23 05:36:32;;;;;;;2.10;1.35;;;;;;;;;;5026393;28;20487;-79
2022/12/23 05:38:58;;;;;;;2.08;1.55;;;;;;;;;;5028616;28;20179;-79
2022/12/23 05:41:24;;;;;;;1.75;1.25;;;;;;;;;;5026600;28;20025;-80
2022/12/23 05:43:50;;;;;;;2.33;1.38;;;;;;;;;;5027708;28;20473;-78
2022/12/23 05:46:16;;;;;;;3.53;1.60;;;;;;;;;;5028128;28;20029;-78
2022/12/23 05:48:52;;;;;;;2.00;1.30;;;;;;;;;;5020706;28;20033;-77
2022/12/23 05:51:18;;;;;;;1.50;1.25;;;;;;;;;;5029189;28;20029;-78
2022/12/23 05:53:44;;;;;;;2.15;1.42;;;;;;;;;;5024810;28;20789;-77
2022/12/23 05:56:10;;;;;;;1.80;1.33;;;;;;;;;;5028460;28;20445;-78
2022/12/23 05:58:36;;;;;;;2.03;1.55;;;;;;;;;;5024468;28;20030;-78
2022/12/23 06:01:03;;;;;;;1.67;1.10;;;;;;;;;;5026876;28;20043;-78
2022/12/23 06:03:29;;;;;;;4.45;1.67;;;;;;;;;;5030687;28;20025;-78
2022/12/23 06:05:55;;;;;;;2.30;1.67;;;;;;;;;;5027930;28;20140;-78
2022/12/23 06:08:21;;;;;;;1.60;1.20;;;;;;;;;;5024408;28;20025;-78
2022/12/23 06:10:47;;;;;;;1.85;1.25;;;;;;;;;;5026319;28;20025;-78
2022/12/23 06:13:13;;;;;;;2.50;1.48;;;;;;;;;;5028956;28;20026;-78
2022/12/23 06:15:39;;;;;;;1.58;1.17;;;;;;;;;;5027521;28;20041;-78
2022/12/23 06:18:05;;;;;;;1.67;1.10;;;;;;;;;;5026539;28;20064;-78
2022/12/23 06:20:31;;;;;;;2.28;1.25;;;;;;;;;;5024798;28;20514;-78
2022/12/23 06:22:57;;;;;;;1.92;1.23;;;;;;;;;;5030251;28;20540;-78
2022/12/23 06:25:23;;;;;;;1.38;1.10;;;;;;;;;;5027304;28;20030;-78
2022/12/23 06:27:49;;;;;;;1.17;1.05;;;;;;;;;;5025637;28;20033;-78
2022/12/23 06:30:15;;;;;;;3.30;1.45;;;;;;;;;;5023337;28;20053;-78
2022/12/23 06:32:41;;;;;;;2.00;1.30;;;;;;;;;;5024599;28;20076;-78
2022/12/23 06:35:07;;;;;;;1.98;1.40;;;;;;;;;;5027272;28;20651;-78
2022/12/23 06:37:33;;;;;;;1.58;1.30;;;;;;;;;;5030564;28;20037;-79
2022/12/23 06:39:59;;;;;;;1.75;1.23;;;;;;;;;;5028699;28;20030;-78
2022/12/23 06:42:25;;;;;;;2.03;1.23;;;;;;;;;;5029005;28;20036;-78
2022/12/23 06:44:51;;;;;;;2.92;1.33;;;;;;;;;;5025296;28;20055;-72
2022/12/23 06:47:17;;;;;;;1.50;1.00;;;;;;;;;;5034930;28;20024;-72
2022/12/23 06:49:43;;;;;;;1.90;1.40;;;;;;;;;;5024001;28;20021;-71
2022/12/23 06:52:09;;;;;;;1.67;1.25;;;;;;;;;;5023195;28;20030;-77
2022/12/23 06:54:35;;;;;;;1.88;1.27;;;;;;;;;;5028124;28;20029;-77
2022/12/23 06:57:01;;;;;;;1.67;1.30;;;;;;;;;;5025562;28;20041;-77
2022/12/23 06:59:28;;;;;;;1.98;1.13;;;;;;;;;;5031545;28;20084;-77
2022/12/23 07:01:54;;;;;;;2.03;1.23;;;;;;;;;;5020201;28;20100;-76
2022/12/23 07:04:20;;;;;;;1.63;1.23;;;;;;;;;;5028065;28;20100;-77
2022/12/23 07:06:46;;;;;;;1.75;1.08;;;;;;;;;;5027991;28;20079;-77
2022/12/23 07:09:12;;;;;;;3.92;1.30;;;;;;;;;;5029933;28;20055;-77
2022/12/23 07:11:38;;;;;;;2.42;1.35;;;;;;;;;;5032016;28;20036;-77
2022/12/23 07:14:04;;;;;;;1.20;1.10;;;;;;;;;;5027678;28;20079;-78
2022/12/23 07:16:30;;;;;;;1.48;1.20;;;;;;;;;;5028474;28;20031;-77
2022/12/23 07:18:56;;;;;;;1.95;1.35;;;;;;;;;;5029570;28;20025;-77
2022/12/23 07:21:22;;;;;;;2.72;1.52;;;;;;;;;;5025645;28;20029;-75
2022/12/23 07:23:48;;;;;;;1.55;1.40;;;;;;;;;;5024210;28;20022;-78
2022/12/23 07:26:14;;;;;;;1.88;1.27;;;;;;;;;;5021026;28;20031;-77
2022/12/23 07:28:40;;;;;;;1.27;1.10;;;;;;;;;;5024922;28;20052;-77
2022/12/23 07:31:06;;;;;;;1.48;1.38;;;;;;;;;;5016710;28;20097;-77
2022/12/23 07:33:32;;;;;;;1.98;1.20;;;;;;;;;;5025838;28;20064;-78
2022/12/23 07:35:58;;;;;;;1.90;1.58;;;;;;;;;;5025623;28;20029;-77
2022/12/23 07:38:24;;;;;;;2.65;1.48;;;;;;;;;;5027941;28;20040;-78
2022/12/23 07:40:50;;;;;;;3.03;1.98;;;;;;;;;;5024521;28;20029;-77
2022/12/23 07:43:16;;;;;;;6.18;2.05;;;;;;;;;;5025634;28;20021;-79
2022/12/23 07:45:42;;;;;;;4.40;2.75;;;;;;;;;;5026688;28;20033;-78
2022/12/23 07:48:08;;;;;;;5.93;2.65;;;;;;;;;;5025874;28;20045;-77
2022/12/23 07:50:34;;;;;;;3.58;2.10;;;;;;;;;;5022138;28;20021;-77
2022/12/23 07:53:00;;;;;;;3.85;2.03;;;;;;;;;;5021977;28;20095;-78
2022/12/23 07:55:26;;;;;;;3.72;2.65;;;;;;;;;;5019516;28;20037;-82
2022/12/23 07:57:52;;;;;;;4.65;2.10;;;;;;;;;;5024845;28;20029;-77
2022/12/23 08:00:19;;;;;;;3.42;2.53;;;;;;;;;;5011283;28;20021;-83
2022/12/23 08:02:45;;;;;;;3.58;1.92;;;;;;;;;;5020323;28;20094;-72
2022/12/23 08:05:12;;;;;;;3.25;2.00;;;;;;;;;;5019103;28;20026;-73
2022/12/23 08:07:38;;;;;;;3.58;2.30;;;;;;;;;;5017981;28;21141;-72
2022/12/23 08:10:05;;;;;;;3.70;2.40;;;;;;;;;;5021742;28;20778;-77
2022/12/23 08:12:31;;;;;;;3.83;2.20;;;;;;;;;;5021778;28;20091;-77
2022/12/23 08:14:57;;;;;;;4.35;2.17;;;;;;;;;;5021441;28;20037;-75
2022/12/23 08:17:25;;;;;;;5.28;2.22;;;;;;;;;;5022018;28;20018;-76
2022/12/23 08:20:13;;;;;;;2.47;1.70;;;;;;;;;;5020785;28;20784;-78
2022/12/23 08:22:44;;;;;;;2.75;1.67;;;;;;;;;;5019350;28;20230;-77
2022/12/23 08:25:10;;;;;;;5.93;2.47;;;;;;;;;;5022610;28;20028;-76
2022/12/23 08:27:36;;;;;;;2.67;1.73;;;;;;;;;;5022639;28;20041;-78
2022/12/23 08:30:03;;;;;;;2.90;2.05;;;;;;;;;;5025488;28;20025;-76
2022/12/23 08:32:28;;;;;;;3.70;2.10;;;;;;;;;;5020379;28;20094;-74
2022/12/23 08:34:56;;;;;;;2.53;1.65;;;;;;;;;;5015597;28;20026;-78
2022/12/23 08:37:22;;;;;;;2.25;1.88;;;;;;;;;;5021344;28;20033;-77
2022/12/23 08:39:48;;;;;;;3.72;2.30;;;;;;;;;;5019484;28;20035;-82
2022/12/23 08:42:14;;;;;;;6.82;2.35;;;;;;;;;;5018975;28;20017;-75
2022/12/23 08:44:40;;;;;;;4.68;2.05;;;;;;;;;;5024537;28;20692;-79
2022/12/23 08:47:06;;;;;;;4.25;2.30;;;;;;;;;;5015336;28;20052;-77
2022/12/23 08:49:32;;;;;;;3.83;2.15;;;;;;;;;;5019387;28;20037;-79
2022/12/23 08:51:58;;;;;;;4.05;1.95;;;;;;;;;;5014582;28;20080;-75
2022/12/23 08:54:24;;;;;;;4.07;2.22;;;;;;;;;;5020705;28;20029;-75
2022/12/23 08:56:50;;;;;;;5.18;2.22;;;;;;;;;;5018384;28;20443;-76
2022/12/23 08:59:17;;;;;;;4.20;2.30;;;;;;;;;;5019070;28;20022;-75
2022/12/23 09:01:43;;;;;;;2.72;2.00;;;;;;;;;;5015507;28;20022;-76
2022/12/23 09:04:09;;;;;;;3.25;1.90;;;;;;;;;;5018982;28;20116;-75
2022/12/23 09:06:37;;;;;;;3.53;1.90;;;;;;;;;;5019500;28;20458;-76
2022/12/23 09:09:06;;;;;;;2.85;2.00;;;;;;;;;;5018977;28;20471;-76
2022/12/23 09:11:33;;;;;;;3.92;2.45;;;;;;;;;;5014362;28;20068;-76
2022/12/23 09:13:59;;;;;;;3.03;1.80;;;;;;;;;;5019879;28;20488;-76
2022/12/23 09:16:26;;;;;;;3.53;2.20;;;;;;;;;;5020163;28;20496;-77
2022/12/23 09:18:52;;;;;;;4.05;2.15;;;;;;;;;;5018570;28;20052;-77
2022/12/23 09:21:19;;;;;;;2.80;1.98;;;;;;;;;;5020752;28;20025;-75
2022/12/23 09:23:45;;;;;;;5.47;1.88;;;;;;;;;;5012119;28;20030;-75
2022/12/23 09:26:16;;;;;;;3.60;1.70;;;;;;;;;;5016748;28;20034;-75
2022/12/23 09:28:42;;;;;;;1.83;1.38;;;;;;;;;;5020535;28;20071;-75
2022/12/23 09:31:15;;;;;;;5.57;1.85;;;;;;;;;;5017570;28;20554;-75
2022/12/23 09:33:41;;;;;;;3.95;1.80;;;;;;;;;;5019015;28;20049;-75
2022/12/23 09:36:07;;;;;;;3.83;1.98;;;;;;;;;;5017806;28;20064;-75
2022/12/23 09:38:33;;;;;;;3.35;1.85;;;;;;;;;;5021889;28;20353;-75
2022/12/23 09:41:06;;;;;;;3.67;1.65;;;;;;;;;;5018769;28;20034;-75
2022/12/23 09:43:35;;;;;;;5.80;1.85;;;;;;;;;;5016832;28;20029;-75
2022/12/23 09:46:06;;;;;;;5.30;2.47;;;;;;;;;;5020478;28;20160;-76
2022/12/23 09:48:35;;;;;;;4.50;2.40;;;;;;;;;;5020337;28;20061;-76
2022/12/23 09:51:02;;;;;;;3.42;1.90;;;;;;;;;;5025978;28;20488;-76
2022/12/23 09:53:51;;;;;;;5.07;1.98;;;;;;;;;;5017926;28;20021;-75
2022/12/23 09:56:20;;;;;;;2.50;1.95;;;;;;;;;;5022207;28;20033;-78
2022/12/23 09:58:48;;;;;;;3.30;1.70;;;;;;;;;;5034895;28;20024;-79
2022/12/23 10:01:27;;;;;;;3.03;1.77;;;;;;;;;;5024693;28;20036;-75
2022/12/23 10:03:59;;;;;;;3.53;2.20;;;;;;;;;;5027017;28;20029;-75
2022/12/23 10:06:28;;;;;;;2.67;1.60;;;;;;;;;;5023303;28;20053;-74
2022/12/23 10:08:59;;;;;;;2.00;1.27;;;;;;;;;;5020162;28;20037;-76
2022/12/23 10:11:41;;;;;;;3.63;2.13;;;;;;;;;;5022727;28;20064;-76
2022/12/23 10:14:19;;;;;;;4.32;1.90;;;;;;;;;;5020086;28;20377;-77
2022/12/23 10:16:49;;;;;;;2.55;1.85;;;;;;;;;;5015853;28;20065;-76
2022/12/23 10:19:17;;;;;;;3.10;1.75;;;;;;;;;;5022252;28;20034;-75
2022/12/23 10:21:55;;;;;;;3.22;2.15;;;;;;;;;;5025098;28;20073;-75
2022/12/23 10:24:22;;;;;;;2.70;1.83;;;;;;;;;;5027935;28;20029;-75
2022/12/23 10:26:53;;;;;;;3.60;2.00;;;;;;;;;;5023572;28;20029;-75
2022/12/23 10:29:20;;;;;;;3.28;1.98;;;;;;;;;;5023798;28;20033;-75
2022/12/23 10:31:52;;;;;;;2.70;1.90;;;;;;;;;;5025355;28;20048;-74
2022/12/23 10:34:38;;;;;;;3.85;2.00;;;;;;;;;;5025127;28;20044;-75
2022/12/23 10:37:13;;;;;;;3.33;1.90;;;;;;;;;;5006813;28;20148;-74
2022/12/23 10:40:00;;;;;;;3.15;2.00;;;;;;;;;;5024311;28;20029;-76
2022/12/23 10:42:33;;;;;;;4.18;2.10;;;;;;;;;;5026044;28;20026;-74
2022/12/23 10:45:08;;;;;;;4.55;2.40;;;;;;;;;;5026301;28;20026;-75
2022/12/23 10:47:58;;;;;;;2.88;1.73;;;;;;;;;;5028120;28;20025;-75
2022/12/23 10:50:44;;;;;;;3.30;2.20;;;;;;;;;;5024948;28;20040;-76
2022/12/23 10:53:13;;;;;;;4.72;2.08;;;;;;;;;;5023715;28;20034;-76
2022/12/23 10:55:39;;;;;;;3.88;2.25;;;;;;;;;;5023297;28;20029;-76
2022/12/23 10:58:17;;;;;;;3.33;1.85;;;;;;;;;;5026843;28;20055;-75
2022/12/23 11:00:44;;;;;;;3.28;2.05;;;;;;;;;;5026154;28;20029;-77
2022/12/23 11:03:19;;;;;;;5.95;2.10;;;;;;;;;;5024324;28;20124;-76
2022/12/23 11:05:45;;;;;;;4.20;2.42;;;;;;;;;;5027838;28;20033;-77
2022/12/23 11:08:11;;;;;;;3.88;2.50;;;;;;;;;;5031997;28;20033;-77
2022/12/23 11:10:38;;;;;;;3.70;2.10;;;;;;;;;;5022335;28;20101;-76
2022/12/23 11:13:07;;;;;;;3.95;2.03;;;;;;;;;;5013282;28;20373;-79
2022/12/23 11:15:34;;;;;;;4.55;2.17;;;;;;;;;;5015817;28;20060;-78
2022/12/23 11:18:02;;;;;;;4.40;2.28;;;;;;;;;;5017704;28;20476;-76
2022/12/23 11:20:28;;;;;;;5.35;2.53;;;;;;;;;;5014966;28;20022;-78
2022/12/23 11:23:21;;;;;;;5.68;2.75;;;;;;;;;;5015097;28;20475;-78
2022/12/23 11:25:47;;;;;;;4.32;2.10;;;;;;;;;;5017181;28;20036;-78
2022/12/23 11:28:15;;;;;;;5.68;1.98;;;;;;;;;;5022327;28;20102;-77
2022/12/23 11:30:50;;;;;;;3.42;1.98;;;;;;;;;;5023589;28;20273;-78
2022/12/23 11:33:22;;;;;;;4.95;2.45;;;;;;;;;;5025137;28;20310;-78
2022/12/23 11:35:58;;;;;;;3.38;2.00;;;;;;;;;;5021909;28;20542;-79
2022/12/23 11:38:24;;;;;;;3.40;2.00;;;;;;;;;;5020239;28;20061;-79
2022/12/23 11:40:51;;;;;;;4.13;2.22;;;;;;;;;;5023753;28;20055;-79
2022/12/23 11:43:19;;;;;;;5.82;2.47;;;;;;;;;;5026389;28;20021;-79
2022/12/23 11:45:45;;;;;;;4.45;2.33;;;;;;;;;;5024432;28;20025;-79
2022/12/23 11:48:28;;;;;;;3.80;2.00;;;;;;;;;;5025375;28;20036;-79
2022/12/23 11:50:58;;;;;;;3.13;2.00;;;;;;;;;;5029488;28;20127;-79
2022/12/23 11:53:26;;;;;;;6.00;2.28;;;;;;;;;;5024717;28;20037;-78
2022/12/23 11:56:12;;;;;;;5.88;1.88;;;;;;;;;;5027925;28;20437;-78
2022/12/23 11:58:51;;;;;;;4.07;2.13;;;;;;;;;;5025390;28;20504;-78
2022/12/23 12:01:22;;;;;;;5.95;2.10;;;;;;;;;;5024285;28;20052;-78
2022/12/23 12:03:55;;;;;;;2.75;1.90;;;;;;;;;;5024757;28;20480;-78
2022/12/23 12:06:22;;;;;;;4.78;2.42;;;;;;;;;;5021946;28;20039;-79
2022/12/23 12:08:52;;;;;;;3.70;2.20;;;;;;;;;;5017061;28;20113;-78
2022/12/23 12:11:22;;;;;;;4.67;2.43;;;;;;;;;;5019810;28;20034;-79
2022/12/23 12:13:49;;;;;;;42.80;7.38;;;;;;;;;;5016700;28;20029;-80
2022/12/23 12:16:18;;;;;;;60.78;9.00;;;;;;;;;;5015571;28;20493;-73
2022/12/23 12:18:45;;;;;;;44.10;6.00;;;;;;;;;;5023152;28;20045;-76
2022/12/23 12:21:16;;;;;;;34.72;5.32;;;;;;;;;;5024991;28;20499;-74
2022/12/23 12:23:45;;;;;;;22.88;5.28;;;;;;;;;;5019350;28;20084;-83
2022/12/23 12:26:22;;;;;;;36.22;4.18;;;;;;;;;;5020901;28;20087;-81
2022/12/23 12:28:51;;;;;;;21.10;6.03;;;;;;;;;;5019119;28;20029;-78
2022/12/23 12:31:22;;;;;;;28.98;4.35;;;;;;;;;;5017764;28;20045;-77
2022/12/23 12:34:11;;;;;;;34.42;5.60;;;;;;;;;;5017783;28;20395;-74
2022/12/23 12:36:41;;;;;;;28.23;3.53;;;;;;;;;;5019219;28;20029;-75
2022/12/23 12:39:14;;;;;;;48.55;6.25;;;;;;;;;;5053505;28;20018;-74
2022/12/23 12:41:45;;;;;;;26.92;4.75;;;;;;;;;;5025980;28;20128;-75
2022/12/23 12:44:20;;;;;;;20.60;4.63;;;;;;;;;;5018986;28;20026;-75
2022/12/23 12:46:53;;;;;;;22.17;3.38;;;;;;;;;;5022594;28;20037;-75
2022/12/23 12:49:29;;;;;;;23.08;3.95;;;;;;;;;;5015209;28;20034;-74
2022/12/23 12:52:02;;;;;;;17.65;4.32;;;;;;;;;;5023715;28;20120;-74
2022/12/23 12:54:34;;;;;;;49.03;6.28;;;;;;;;;;5015023;28;20064;-76
2022/12/23 12:57:01;;;;;;;53.60;6.65;;;;;;;;;;5019289;28;20025;-73
2022/12/23 12:59:29;;;;;;;67.93;8.13;;;;;;;;;;5020979;28;20431;-76
2022/12/23 13:02:15;;;;;;;106.22;10.30;;;;;;;;;;5018024;28;20033;-77
2022/12/23 13:04:49;;;;;;;38.78;5.25;;;;;;;;;;5019563;28;20317;-73
2022/12/23 13:07:34;;;;;;;51.30;6.28;;;;;;;;;;5026312;28;20051;-78
2022/12/23 13:10:18;;;;;;;32.55;6.45;;;;;;;;;;5024872;28;20083;-85
2022/12/23 13:12:59;;;;;;;43.42;7.82;;;;;;;;;;5015527;28;20022;-80
2022/12/23 13:15:27;;;;;;;88.05;9.35;;;;;;;;;;5016067;28;20034;-77
2022/12/23 13:18:07;;;;;;;53.40;7.20;;;;;;;;;;5017039;28;20037;-75
2022/12/23 13:20:53;;;;;;;33.67;5.30;;;;;;;;;;5017085;28;20026;-76
2022/12/23 13:23:22;;;;;;;52.53;7.78;;;;;;;;;;5018599;28;20053;-77
2022/12/23 13:26:10;;;;;;;65.57;7.50;;;;;;;;;;5025861;28;20056;-77
2022/12/23 13:28:45;;;;;;;12.55;3.83;;;;;;;;;;5026473;28;20136;-73
2022/12/23 13:31:15;;;;;;;10.88;3.85;;;;;;;;;;5031732;28;20514;-78
2022/12/23 13:33:48;;;;;;;9.07;3.53;;;;;;;;;;5025020;28;20043;-75
2022/12/23 13:36:26;;;;;;;7.20;3.60;;;;;;;;;;5028384;28;20033;-76
2022/12/23 13:39:17;;;;;;;10.70;3.92;;;;;;;;;;5024893;28;20025;-75
2022/12/23 13:41:48;;;;;;;8.17;3.93;;;;;;;;;;5021482;28;20270;-74
2022/12/23 13:44:17;;;;;;;6.55;3.50;;;;;;;;;;5035052;28;20312;-73
2022/12/23 13:46:49;;;;;;;10.57;4.13;;;;;;;;;;5027625;28;20052;-79
2022/12/23 13:49:30;;;;;;;9.23;3.50;;;;;;;;;;5021875;28;20026;-76
2022/12/23 13:51:55;;;;;;;9.23;3.28;;;;;;;;;;5027028;28;20033;-80
2022/12/23 13:54:24;;;;;;;8.23;2.88;;;;;;;;;;5018167;28;20033;-80
2022/12/23 13:57:09;;;;;;;7.97;3.72;;;;;;;;;;5023412;28;20106;-77
2022/12/23 13:59:40;;;;;;;11.88;3.15;;;;;;;;;;5013252;28;20112;-82
2022/12/23 14:02:26;;;;;;;10.50;3.28;;;;;;;;;;5022663;28;20045;-78
2022/12/23 14:04:58;;;;;;;13.77;3.47;;;;;;;;;;5020165;28;20488;-90
2022/12/23 14:07:26;;;;;;;12.20;3.20;;;;;;;;;;5018840;28;20061;-85
2022/12/23 14:09:57;;;;;;;15.48;3.33;;;;;;;;;;5023304;28;20431;-86
2022/12/23 14:12:28;;;;;;;12.00;3.67;;;;;;;;;;5022973;28;20125;-88
2022/12/23 14:15:04;;;;;;;9.20;3.05;;;;;;;;;;5026941;28;20028;-79
2022/12/23 14:17:50;;;;;;;21.02;4.22;;;;;;;;;;5024513;28;20058;-83
2022/12/23 14:20:32;;;;;;;14.85;3.15;;;;;;;;;;5017763;28;20083;-82
2022/12/23 14:23:09;;;;;;;10.70;3.63;;;;;;;;;;5029363;28;20098;-82
2022/12/23 14:25:35;;;;;;;27.08;3.75;;;;;;;;;;5023651;28;20037;-88
2022/12/23 14:28:10;;;;;;;12.20;4.15;;;;;;;;;;5025896;28;20358;-90
2022/12/23 14:30:39;;;;;;;9.45;3.20;;;;;;;;;;5024845;28;20018;-79
2022/12/23 14:33:17;;;;;;;15.50;3.58;;;;;;;;;;5027998;28;20086;-91
2022/12/23 14:35:43;;;;;;;10.98;3.40;;;;;;;;;;5027629;28;20092;-83
2022/12/23 14:38:09;;;;;;;17.58;3.45;;;;;;;;;;5026914;28;20427;-81
2022/12/23 14:40:38;;;;;;;11.05;3.08;;;;;;;;;;5029464;28;20036;-83
2022/12/23 14:43:24;;;;;;;12.38;3.33;;;;;;;;;;5034436;28;20434;-78
2022/12/23 14:45:54;;;;;;;7.85;2.72;;;;;;;;;;5027623;28;20505;-81
2022/12/23 14:48:33;;;;;;;7.88;2.85;;;;;;;;;;5021078;28;20028;-79
2022/12/23 14:51:08;;;;;;;9.73;2.67;;;;;;;;;;5023183;28;20030;-78
2022/12/23 14:53:35;;;;;;;9.43;3.28;;;;;;;;;;5026360;28;20048;-81
2022/12/23 14:56:19;;;;;;;5.45;2.03;;;;;;;;;;5031973;28;20033;-82
2022/12/23 14:58:52;;;;;;;6.57;2.45;;;;;;;;;;5026924;28;20571;-81
2022/12/23 15:01:23;;;;;;;7.38;2.45;;;;;;;;;;5026650;28;20480;-80
2022/12/23 15:03:50;;;;;;;6.03;2.42;;;;;;;;;;5013635;28;20028;-86
2022/12/23 15:06:18;;;;;;;9.68;3.08;;;;;;;;;;5022933;28;20087;-83
2022/12/23 15:08:45;;;;;;;6.82;2.38;;;;;;;;;;5026778;28;20021;-87
2022/12/23 15:11:18;;;;;;;6.28;2.92;;;;;;;;;;5014954;28;20112;-82
2022/12/23 15:13:44;;;;;;;7.43;2.70;;;;;;;;;;5020094;28;20033;-74
2022/12/23 15:16:15;;;;;;;5.72;2.40;;;;;;;;;;5023982;28;20754;-81
2022/12/23 15:18:59;;;;;;;6.10;2.53;;;;;;;;;;5016852;28;20029;-75
2022/12/23 15:21:28;;;;;;;5.30;2.08;;;;;;;;;;5025543;28;20103;-77